createdAt,value
2023-10-18T00:00:25.188Z,4.40
2023-10-18T00:05:50.406Z,5.40
2023-10-18T00:10:54.465Z,5.10
2023-10-18T00:16:09.904Z,4.50
2023-10-18T00:21:13.330Z,4.90
2023-10-18T00:26:16.044Z,3.00
2023-10-18T00:31:28.604Z,4.50
2023-10-18T00:36:33.593Z,3.70
2023-10-18T00:41:44.260Z,4.60
2023-10-18T00:46:58.519Z,4.20
2023-10-18T00:52:02.334Z,5.60
2023-10-18T00:57:10.104Z,4.60
2023-10-18T01:02:21.603Z,3.80
2023-10-18T01:07:25.308Z,4.30
2023-10-18T01:12:30.374Z,3.90
2023-10-18T01:17:44.036Z,3.00
2023-10-18T01:22:47.631Z,4.70
2023-10-18T01:27:50.801Z,2.10
2023-10-18T01:32:55.196Z,2.80
2023-10-18T01:38:04.654Z,3.60
2023-10-18T01:43:13.996Z,4.40
2023-10-18T01:48:19.538Z,4.50
2023-10-18T01:53:24.717Z,4.00
2023-10-18T01:58:28.035Z,2.20
2023-10-18T02:03:35.913Z,6.30
2023-10-18T02:08:41.185Z,4.40
2023-10-18T02:13:43.807Z,3.40
2023-10-18T02:18:50.990Z,3.60
2023-10-18T02:23:58.317Z,4.10
2023-10-18T02:29:15.725Z,5.20
2023-10-18T02:34:29.987Z,7.70
2023-10-18T02:39:42.420Z,5.50
2023-10-18T02:44:51.805Z,5.00
2023-10-18T02:49:54.584Z,4.90
2023-10-18T02:55:10.191Z,3.90
2023-10-18T03:00:18.295Z,2.30
2023-10-18T03:05:21.765Z,4.50
2023-10-18T03:10:34.283Z,4.60
2023-10-18T03:15:59.204Z,4.50
2023-10-18T03:21:21.945Z,5.50
2023-10-18T03:26:35.987Z,4.10
2023-10-18T03:31:45.184Z,5.30
2023-10-18T03:36:53.196Z,5.80
2023-10-18T03:42:03.103Z,4.70
2023-10-18T03:47:15.689Z,3.60
2023-10-18T03:52:18.523Z,3.60
2023-10-18T03:57:31.895Z,4.50
2023-10-18T04:02:38.037Z,5.60
2023-10-18T04:07:43.544Z,5.50
2023-10-18T04:12:48.634Z,5.00
2023-10-18T04:18:04.119Z,5.10
2023-10-18T04:23:29.421Z,3.90
2023-10-18T04:28:39.622Z,4.00
2023-10-18T04:33:46.961Z,4.50
2023-10-18T04:38:53.055Z,3.40
2023-10-18T04:44:07.030Z,3.00
2023-10-18T04:49:09.992Z,3.60
2023-10-18T04:54:18.009Z,3.50
2023-10-18T04:59:57.020Z,4.00
2023-10-18T05:05:05.328Z,3.80
2023-10-18T05:10:21.800Z,2.40
2023-10-18T05:15:30.499Z,3.90
2023-10-18T05:20:43.121Z,3.10
2023-10-18T05:25:47.903Z,5.60
2023-10-18T05:31:24.617Z,3.10
2023-10-18T05:36:30.956Z,4.00
2023-10-18T05:41:46.696Z,2.80
2023-10-18T05:46:52.138Z,3.70
2023-10-18T05:52:10.246Z,4.50
2023-10-18T05:57:19.522Z,3.80
2023-10-18T06:08:15.812Z,2.90
2023-10-18T06:13:22.347Z,3.30
2023-10-18T06:18:32.428Z,2.50
2023-10-18T06:41:46.099Z,4.70
2023-10-18T06:46:51.291Z,3.80
2023-10-18T06:57:40.037Z,3.20
2023-10-18T07:02:45.740Z,4.20
2023-10-18T07:14:30.235Z,2.80
2023-10-18T07:19:49.391Z,6.00
2023-10-18T07:30:52.006Z,5.20
2023-10-18T07:35:56.281Z,3.70
2023-10-18T07:41:19.852Z,3.50
2023-10-18T07:46:29.261Z,3.50
2023-10-18T07:51:44.429Z,3.00
2023-10-18T07:56:50.649Z,3.00
2023-10-18T08:01:55.695Z,3.30
2023-10-18T08:06:58.572Z,2.80
2023-10-18T08:12:07.433Z,2.60
2023-10-18T08:17:10.643Z,2.80
2023-10-18T08:22:15.191Z,2.20
2023-10-18T08:27:19.294Z,2.50
2023-10-18T08:32:31.396Z,2.80
2023-10-18T08:44:17.906Z,3.30
2023-10-18T08:49:33.641Z,3.00
2023-10-18T08:54:42.252Z,2.70
2023-10-18T08:59:49.811Z,2.50
2023-10-18T09:05:00.398Z,2.30
2023-10-18T09:10:06.363Z,2.00
2023-10-18T09:15:45.136Z,2.10
2023-10-18T09:21:09.971Z,3.10
2023-10-18T09:26:19.787Z,3.70
2023-10-18T09:31:27.628Z,2.80
2023-10-18T09:36:31.263Z,2.60
2023-10-18T09:41:34.186Z,3.00
2023-10-18T09:46:41.128Z,3.90
2023-10-18T09:51:54.602Z,4.00
2023-10-18T09:57:00.605Z,2.70
2023-10-18T10:02:16.678Z,2.30
2023-10-18T10:07:44.155Z,2.50
2023-10-18T10:12:52.389Z,2.80
2023-10-18T10:18:02.099Z,2.30
2023-10-18T10:23:16.492Z,2.30
2023-10-18T10:29:06.441Z,3.10
2023-10-18T10:34:25.728Z,1.90
2023-10-18T10:39:35.777Z,2.00
2023-10-18T10:45:27.321Z,2.00
2023-10-18T10:50:43.806Z,2.20
2023-10-18T10:55:57.478Z,2.70
2023-10-18T11:01:01.049Z,2.50
2023-10-18T11:06:07.417Z,2.20
2023-10-18T11:11:27.465Z,2.90
2023-10-18T11:16:35.009Z,2.90
2023-10-18T11:21:43.216Z,3.10
2023-10-18T11:26:51.971Z,3.30
2023-10-18T11:32:00.377Z,2.30
2023-10-18T12:11:27.064Z,1.90
2023-10-18T12:16:35.919Z,2.20
2023-10-18T12:42:47.866Z,2.10
2023-10-18T12:47:53.019Z,1.90
2023-10-18T12:53:20.853Z,2.00
2023-10-18T12:58:32.793Z,2.50
2023-10-18T13:03:38.912Z,1.80
2023-10-18T13:09:07.189Z,2.20
2023-10-18T13:14:16.853Z,2.50
2023-10-18T13:19:20.413Z,3.40
2023-10-18T13:24:24.025Z,2.70
2023-10-18T13:29:28.060Z,2.70
2023-10-18T13:35:05.364Z,7.20
2023-10-18T13:40:19.946Z,3.60
2023-10-18T13:45:29.860Z,2.30
2023-10-18T13:50:43.245Z,4.10
2023-10-18T13:55:46.257Z,3.20
2023-10-18T14:00:52.599Z,3.00
2023-10-18T14:05:59.144Z,4.50
2023-10-18T14:11:02.061Z,4.10
2023-10-18T14:16:13.519Z,3.90
2023-10-18T14:21:22.961Z,5.10
2023-10-18T14:26:26.086Z,9.00
2023-10-18T14:31:31.193Z,8.90
2023-10-18T14:36:34.793Z,7.60
2023-10-18T14:41:40.422Z,5.20
2023-10-18T14:46:46.102Z,3.50
2023-10-18T14:51:52.387Z,3.60
2023-10-18T14:56:57.267Z,3.30
2023-10-18T15:02:00.886Z,5.00
2023-10-18T15:07:05.943Z,6.00
2023-10-18T15:12:11.765Z,5.80
2023-10-18T15:17:15.987Z,5.40
2023-10-18T15:22:21.830Z,5.70
2023-10-18T15:27:27.391Z,5.10
2023-10-18T15:32:32.462Z,5.40
2023-10-18T15:37:37.131Z,2.30
2023-10-18T15:42:39.743Z,3.60
2023-10-18T15:47:44.163Z,7.00
2023-10-18T15:52:49.410Z,5.10
2023-10-18T15:57:52.261Z,7.00
2023-10-18T16:02:56.230Z,3.70
2023-10-18T16:07:59.254Z,1.50
2023-10-18T16:13:05.947Z,1.70
2023-10-18T16:18:11.463Z,2.00
2023-10-18T16:23:16.602Z,3.30
2023-10-18T16:28:19.433Z,3.60
2023-10-18T16:33:23.127Z,6.10
2023-10-18T16:38:27.261Z,5.00
2023-10-18T16:43:29.957Z,5.20
2023-10-18T16:48:44.190Z,4.40
2023-10-18T16:53:47.819Z,6.70
2023-10-18T16:58:53.431Z,19.00
2023-10-18T17:03:57.803Z,22.80
2023-10-18T17:09:03.899Z,18.30
2023-10-18T17:14:07.875Z,17.80
2023-10-18T17:19:18.326Z,11.20
2023-10-18T17:24:23.802Z,8.80
2023-10-18T17:29:33.921Z,8.40
2023-10-18T17:34:37.922Z,5.80
2023-10-18T17:39:40.673Z,4.60
2023-10-18T17:44:45.398Z,7.00
2023-10-18T17:49:50.966Z,4.70
2023-10-18T17:54:53.637Z,4.60
2023-10-18T18:00:07.657Z,4.50
2023-10-18T18:05:13.900Z,5.30
2023-10-18T18:10:19.706Z,5.30
2023-10-18T18:15:22.550Z,6.00
2023-10-18T18:20:25.653Z,5.60
2023-10-18T18:25:33.306Z,5.40
2023-10-18T18:30:36.511Z,4.30
2023-10-18T18:35:40.383Z,4.00
2023-10-18T18:40:49.465Z,5.40
2023-10-18T18:45:53.515Z,6.20
2023-10-18T18:50:56.373Z,5.20
2023-10-18T18:56:00.720Z,6.50
2023-10-18T19:01:09.023Z,7.10
2023-10-18T19:06:14.498Z,7.10
2023-10-18T19:11:25.371Z,8.20
2023-10-18T19:16:28.474Z,7.10
2023-10-18T19:21:32.657Z,8.80
2023-10-18T19:26:38.628Z,8.50
2023-10-18T19:31:41.752Z,6.80
2023-10-18T19:36:44.493Z,7.60
2023-10-18T19:41:51.661Z,7.20
2023-10-18T19:47:25.515Z,5.20
2023-10-18T19:52:24.359Z,6.60
2023-10-18T19:57:29.466Z,6.50
2023-10-18T20:02:32.238Z,9.90
2023-10-18T20:07:35.565Z,12.60
2023-10-18T20:12:38.223Z,11.10
2023-10-18T20:17:43.701Z,10.00
2023-10-18T20:22:50.222Z,9.60
2023-10-18T20:27:56.623Z,12.10
2023-10-18T20:33:00.645Z,9.30
2023-10-18T20:38:07.450Z,12.30
2023-10-18T20:43:12.497Z,10.40
2023-10-18T20:48:20.223Z,11.90
2023-10-18T20:53:24.484Z,10.90
2023-10-18T20:58:28.800Z,8.50
2023-10-18T21:03:37.635Z,8.70
2023-10-18T21:08:42.997Z,8.60
2023-10-18T21:13:47.410Z,8.20
2023-10-18T21:18:53.030Z,9.60
2023-10-18T21:23:58.385Z,8.50
2023-10-18T21:29:01.826Z,8.10
2023-10-18T21:34:04.859Z,6.90
2023-10-18T21:39:10.918Z,5.70
2023-10-18T21:44:14.754Z,6.70
2023-10-18T21:49:20.041Z,6.90
2023-10-18T21:54:25.608Z,7.60
2023-10-18T21:59:31.693Z,7.10
2023-10-18T22:04:36.977Z,9.30
2023-10-18T22:09:45.499Z,13.50
2023-10-18T22:14:51.208Z,9.60
2023-10-18T22:20:02.314Z,9.30
2023-10-18T22:25:21.902Z,9.50
2023-10-18T22:30:31.851Z,10.10
2023-10-18T22:35:35.913Z,9.80
2023-10-18T22:40:39.683Z,8.80
2023-10-18T22:46:06.740Z,10.20
2023-10-18T22:51:09.521Z,9.60
2023-10-18T22:56:30.766Z,7.50
2023-10-18T23:01:37.482Z,9.60
2023-10-18T23:06:42.386Z,9.00
2023-10-18T23:12:12.351Z,10.20
2023-10-18T23:17:18.055Z,10.20
2023-10-18T23:22:36.812Z,12.20
2023-10-18T23:27:58.218Z,14.00
2023-10-18T23:33:08.541Z,14.10
2023-10-18T23:38:37.878Z,12.00
2023-10-18T23:43:40.857Z,14.30
2023-10-18T23:48:47.753Z,16.50
2023-10-18T23:53:52.869Z,14.60
2023-10-18T23:58:56.182Z,7.50
